Time;durP1;ratioP1;P1;durP2;ratioP2;P2;SDS_P1;SDS_P2;PMS_P1;PMS_P2;Temp;Humidity;BMP_temperature;BMP_pressure;BME280_temperature;BME280_humidity;BME280_pressure;Samples;Min_cycle;Max_cycle;Signal;HPM_P1;HPM_P2
2021/05/28 00:01:36;;;;;;;4.00;3.60;;;11.10;99.90;;;;;;5097522;28;20204;-44
2021/05/28 00:04:02;;;;;;;3.67;3.37;;;11.00;99.90;;;;;;5097971;28;20259;-44
2021/05/28 00:06:28;;;;;;;4.10;3.70;;;11.00;99.90;;;;;;5098091;28;20693;-44
2021/05/28 00:08:54;;;;;;;4.20;3.50;;;10.90;99.90;;;;;;5096307;28;20418;-43
2021/05/28 00:11:20;;;;;;;5.00;4.30;;;10.90;99.90;;;;;;5097687;28;20843;-42
2021/05/28 00:13:45;;;;;;;6.47;4.67;;;10.80;99.90;;;;;;5096579;28;20244;-44
2021/05/28 00:16:11;;;;;;;5.73;5.23;;;10.80;99.90;;;;;;5097154;28;20220;-44
2021/05/28 00:18:37;;;;;;;5.63;5.13;;;10.70;99.90;;;;;;5096792;28;20210;-43
2021/05/28 00:21:04;;;;;;;6.40;5.87;;;10.70;99.90;;;;;;5096955;28;20184;-44
2021/05/28 00:23:29;;;;;;;7.20;6.50;;;10.60;99.90;;;;;;5097563;28;20180;-44
2021/05/28 00:25:55;;;;;;;7.73;7.03;;;10.50;99.90;;;;;;5097454;28;20411;-43
2021/05/28 00:28:21;;;;;;;9.90;7.47;;;10.50;99.90;;;;;;5097450;28;20188;-44
2021/05/28 00:30:46;;;;;;;9.63;8.83;;;10.50;99.90;;;;;;5097880;28;20191;-44
2021/05/28 00:33:12;;;;;;;9.97;8.93;;;10.40;99.90;;;;;;5097515;28;20188;-44
2021/05/28 00:35:37;;;;;;;8.97;7.20;;;10.40;99.90;;;;;;5097477;28;20216;-44
2021/05/28 00:38:03;;;;;;;9.20;8.40;;;10.40;99.90;;;;;;5097206;28;20582;-44
2021/05/28 00:40:29;;;;;;;12.20;9.80;;;10.40;99.90;;;;;;5096254;28;20267;-41
2021/05/28 00:42:54;;;;;;;11.17;10.00;;;10.40;99.90;;;;;;5097053;28;20284;-44
2021/05/28 00:45:20;;;;;;;11.97;10.87;;;10.40;99.90;;;;;;5096826;28;20180;-43
2021/05/28 00:47:45;;;;;;;11.93;10.90;;;10.40;99.90;;;;;;5096598;28;20187;-44
2021/05/28 00:50:11;;;;;;;12.00;10.67;;;10.40;99.90;;;;;;5096811;28;20242;-43
2021/05/28 00:52:37;;;;;;;12.80;11.00;;;10.40;99.90;;;;;;5096833;28;20431;-43
2021/05/28 00:55:04;;;;;;;14.97;13.47;;;10.40;99.90;;;;;;5096594;28;20488;-44
2021/05/28 00:57:30;;;;;;;13.43;12.03;;;10.40;99.90;;;;;;5095408;28;20426;-43
2021/05/28 00:59:57;;;;;;;13.10;11.67;;;10.40;99.90;;;;;;5095486;28;20425;-42
2021/05/28 01:02:24;;;;;;;11.17;10.07;;;10.40;99.90;;;;;;5097712;28;20188;-44
2021/05/28 01:04:49;;;;;;;9.03;8.20;;;10.30;99.90;;;;;;5098479;28;20704;-43
2021/05/28 01:07:15;;;;;;;9.50;7.90;;;10.30;99.90;;;;;;5097816;28;20674;-44
2021/05/28 01:09:41;;;;;;;8.40;7.60;;;10.30;99.90;;;;;;5098280;28;20452;-43
2021/05/28 01:12:07;;;;;;;8.60;5.40;;;10.30;99.90;;;;;;5098430;28;20423;-43
2021/05/28 01:14:33;;;;;;;6.47;5.53;;;10.20;99.90;;;;;;5099315;28;20477;-42
2021/05/28 01:16:58;;;;;;;6.47;5.60;;;10.20;99.90;;;;;;5099304;28;20473;-43
2021/05/28 01:19:25;;;;;;;8.10;6.20;;;10.30;99.90;;;;;;5099675;28;20226;-41
2021/05/28 01:21:53;;;;;;;6.67;5.20;;;10.20;99.90;;;;;;5099549;28;20370;-42
2021/05/28 01:24:18;;;;;;;5.87;5.27;;;10.30;99.90;;;;;;5098198;28;20845;-42
2021/05/28 01:26:44;;;;;;;5.90;5.30;;;10.30;99.90;;;;;;5099205;28;20444;-42
2021/05/28 01:29:10;;;;;;;5.60;5.10;;;10.20;99.90;;;;;;5098121;28;20200;-41
2021/05/28 01:31:35;;;;;;;5.43;4.90;;;10.20;99.90;;;;;;5099033;28;20271;-42
2021/05/28 01:34:02;;;;;;;5.63;4.87;;;10.20;99.90;;;;;;5099424;28;20550;-41
2021/05/28 01:36:28;;;;;;;5.63;4.97;;;10.20;99.90;;;;;;5098922;28;20602;-42
2021/05/28 01:38:54;;;;;;;6.10;5.13;;;10.20;99.90;;;;;;5098946;28;20402;-42
2021/05/28 01:41:20;;;;;;;7.00;4.50;;;10.20;99.90;;;;;;5099248;28;20426;-42
2021/05/28 01:47:07;;;;;;;4.57;4.10;;;10.30;99.90;;;;;;5098373;28;20273;-42
2021/05/28 01:49:33;;;;;;;4.80;4.40;;;10.40;99.90;;;;;;5098320;28;20418;-43
2021/05/28 01:51:58;;;;;;;4.77;4.33;;;10.40;99.90;;;;;;5097815;28;20184;-42
2021/05/28 01:54:24;;;;;;;6.67;5.03;;;10.40;99.90;;;;;;5097402;28;20191;-42
2021/05/28 01:56:50;;;;;;;5.10;4.20;;;10.50;99.90;;;;;;5098135;28;20628;-42
2021/05/28 01:59:24;;;;;;;5.00;4.50;;;10.50;99.90;;;;;;5098182;28;20237;-42
2021/05/28 02:01:51;;;;;;;5.60;4.57;;;10.40;99.90;;;;;;5098298;28;20525;-42
2021/05/28 02:04:16;;;;;;;7.03;4.83;;;10.50;99.90;;;;;;5098687;28;20479;-43
2021/05/28 02:06:42;;;;;;;5.70;5.20;;;10.50;99.90;;;;;;5098523;28;20450;-42
2021/05/28 02:09:07;;;;;;;5.67;4.70;;;10.50;99.90;;;;;;5097290;28;20271;-43
2021/05/28 02:11:33;;;;;;;5.00;4.50;;;10.60;99.90;;;;;;5098378;28;20199;-43
2021/05/28 02:13:59;;;;;;;5.30;4.13;;;10.60;99.90;;;;;;5097595;28;20318;-43
2021/05/28 02:16:24;;;;;;;4.90;4.30;;;10.60;99.90;;;;;;5098758;28;20204;-40
2021/05/28 02:18:50;;;;;;;5.40;4.90;;;10.60;99.90;;;;;;5098104;28;20340;-41
2021/05/28 02:21:16;;;;;;;5.80;4.93;;;10.60;99.90;;;;;;5098187;28;20202;-43
2021/05/28 02:23:41;;;;;;;6.50;4.90;;;10.60;99.90;;;;;;5098451;28;20237;-43
2021/05/28 02:26:07;;;;;;;5.17;4.47;;;10.60;99.90;;;;;;5096831;28;20454;-43
2021/05/28 02:28:32;;;;;;;5.97;5.00;;;10.60;99.90;;;;;;5096752;28;20273;-43
2021/05/28 02:30:58;;;;;;;4.90;4.40;;;10.60;99.90;;;;;;5096275;28;20261;-43
2021/05/28 02:33:24;;;;;;;5.80;4.90;;;10.60;99.90;;;;;;5096255;28;20173;-42
2021/05/28 02:35:49;;;;;;;5.47;4.90;;;10.50;99.90;;;;;;5095582;28;20223;-42
2021/05/28 02:38:15;;;;;;;5.93;4.80;;;10.60;99.90;;;;;;5098153;28;20188;-43
2021/05/28 02:40:40;;;;;;;4.70;4.20;;;10.60;99.90;;;;;;5097963;28;20392;-43
2021/05/28 02:43:06;;;;;;;5.20;4.70;;;10.50;99.90;;;;;;5097758;28;20229;-43
2021/05/28 02:45:31;;;;;;;4.83;4.30;;;10.50;99.90;;;;;;5098043;28;20263;-43
2021/05/28 02:47:58;;;;;;;6.17;4.30;;;10.50;99.90;;;;;;5097694;28;20286;-43
2021/05/28 02:50:32;;;;;;;4.87;4.37;;;10.50;99.80;;;;;;5098130;28;20416;-42
2021/05/28 02:53:00;;;;;;;5.33;4.83;;;10.50;99.80;;;;;;5096459;28;20438;-43
2021/05/28 02:55:25;;;;;;;5.93;5.07;;;10.50;99.80;;;;;;5097484;28;20852;-42
2021/05/28 02:57:51;;;;;;;6.00;5.37;;;10.50;99.80;;;;;;5097853;28;20681;-42
2021/05/28 03:00:20;;;;;;;4.90;4.50;;;10.50;99.90;;;;;;5096366;28;20206;-43
2021/05/28 03:02:45;;;;;;;5.93;5.33;;;10.50;99.90;;;;;;5097351;28;20168;-43
2021/05/28 03:05:11;;;;;;;6.43;5.17;;;10.50;99.90;;;;;;5097871;28;20876;-42
2021/05/28 03:07:37;;;;;;;5.47;4.93;;;10.50;99.90;;;;;;5097303;28;20294;-43
2021/05/28 03:10:03;;;;;;;6.50;5.27;;;10.50;99.90;;;;;;5097095;28;20418;-43
2021/05/28 03:12:29;;;;;;;6.60;5.47;;;10.50;99.90;;;;;;5096938;28;20199;-42
2021/05/28 03:14:54;;;;;;;6.13;5.20;;;10.50;99.90;;;;;;5097438;28;20410;-43
2021/05/28 03:17:20;;;;;;;9.40;5.83;;;10.50;99.90;;;;;;5097151;28;20273;-43
2021/05/28 03:19:47;;;;;;;6.63;6.03;;;10.50;99.90;;;;;;5096897;28;20164;-43
2021/05/28 03:24:41;;;;;;;8.60;7.70;;;10.50;99.90;;;;;;5096957;28;20419;-43
2021/05/28 03:27:06;;;;;;;8.07;7.27;;;10.50;99.90;;;;;;5097109;28;20423;-42
2021/05/28 03:29:32;;;;;;;7.03;5.90;;;10.50;99.90;;;;;;5095921;28;20429;-43
2021/05/28 03:31:58;;;;;;;7.80;7.00;;;10.50;99.90;;;;;;5096513;28;20184;-43
2021/05/28 03:34:23;;;;;;;6.47;5.90;;;10.50;99.90;;;;;;5097025;28;20204;-43
2021/05/28 03:36:50;;;;;;;7.50;6.40;;;10.40;99.90;;;;;;5096291;28;20242;-42
2021/05/28 03:39:16;;;;;;;7.93;6.87;;;10.40;99.90;;;;;;5096421;28;20161;-42
2021/05/28 03:41:41;;;;;;;8.20;7.13;;;10.40;99.90;;;;;;5095028;28;20423;-42
2021/05/28 03:44:07;;;;;;;7.90;7.10;;;10.40;99.90;;;;;;5094062;28;20562;-43
2021/05/28 03:46:32;;;;;;;9.37;8.47;;;10.30;99.90;;;;;;5093686;28;20181;-43
2021/05/28 03:48:58;;;;;;;6.97;6.07;;;10.30;99.90;;;;;;5093172;28;20199;-42
2021/05/28 03:51:24;;;;;;;11.03;8.93;;;10.30;99.90;;;;;;5093853;28;20260;-42
2021/05/28 03:53:49;;;;;;;10.20;7.40;;;10.20;99.90;;;;;;5094155;28;20245;-43
2021/05/28 03:56:15;;;;;;;8.90;6.90;;;10.20;99.90;;;;;;5092642;28;20204;-41
2021/05/28 03:58:42;;;;;;;8.47;7.50;;;10.20;99.90;;;;;;5096529;28;20172;-42
2021/05/28 04:01:08;;;;;;;9.37;6.73;;;10.10;99.90;;;;;;5096593;28;20432;-41
2021/05/28 04:03:34;;;;;;;7.13;6.43;;;10.10;99.90;;;;;;5096875;28;20817;-42
2021/05/28 04:05:59;;;;;;;7.90;6.10;;;10.10;99.90;;;;;;5096646;28;20441;-42
2021/05/28 04:08:25;;;;;;;8.77;6.80;;;10.00;99.90;;;;;;5094840;28;20250;-43
2021/05/28 04:10:51;;;;;;;7.60;6.80;;;10.00;99.90;;;;;;5095660;28;20597;-43
2021/05/28 04:13:16;;;;;;;6.57;5.97;;;10.00;99.90;;;;;;5096350;28;20555;-42
2021/05/28 04:15:43;;;;;;;7.80;6.67;;;10.00;99.90;;;;;;5096114;28;20578;-42
2021/05/28 04:18:09;;;;;;;8.00;6.30;;;10.00;99.90;;;;;;5094836;28;20184;-42
2021/05/28 04:20:36;;;;;;;9.30;7.30;;;10.00;99.90;;;;;;5096092;28;20421;-43
2021/05/28 04:23:01;;;;;;;7.43;6.63;;;10.00;99.90;;;;;;5095317;28;20312;-42
2021/05/28 04:25:27;;;;;;;9.97;7.53;;;10.00;99.90;;;;;;5094740;28;20498;-42
2021/05/28 04:27:53;;;;;;;9.37;8.50;;;10.00;99.90;;;;;;5096521;28;20191;-42
2021/05/28 04:30:23;;;;;;;10.83;7.30;;;10.10;99.90;;;;;;5096168;28;20169;-42
2021/05/28 04:32:52;;;;;;;8.00;7.20;;;10.10;99.90;;;;;;5095621;28;20239;-42
2021/05/28 04:35:18;;;;;;;10.83;7.80;;;10.10;99.90;;;;;;5094066;28;20458;-43
2021/05/28 04:37:44;;;;;;;8.43;7.53;;;10.10;99.90;;;;;;5099145;28;20414;-41
2021/05/28 04:40:10;;;;;;;8.90;7.97;;;10.20;99.90;;;;;;5099763;28;20486;-43
2021/05/28 04:42:36;;;;;;;11.27;8.43;;;10.20;99.90;;;;;;5099579;28;20563;-42
2021/05/28 04:45:03;;;;;;;11.03;7.77;;;10.20;99.90;;;;;;5099660;28;20461;-42
2021/05/28 04:47:28;;;;;;;11.03;7.97;;;10.30;99.90;;;;;;5099140;28;20192;-42
2021/05/28 04:49:54;;;;;;;9.20;7.43;;;10.40;99.90;;;;;;5099599;28;20436;-41
2021/05/28 04:52:19;;;;;;;7.63;6.97;;;10.40;99.90;;;;;;5087351;28;20196;-42
2021/05/28 04:54:45;;;;;;;11.40;8.13;;;10.50;99.90;;;;;;5079646;28;20316;-42
2021/05/28 04:57:11;;;;;;;10.63;9.13;;;10.60;99.90;;;;;;5078060;28;20592;-42
2021/05/28 04:59:36;;;;;;;9.37;8.33;;;10.70;99.90;;;;;;5077904;28;20200;-42
2021/05/28 05:02:02;;;;;;;12.37;9.63;;;10.80;99.90;;;;;;5078805;28;20239;-42
2021/05/28 05:04:27;;;;;;;11.13;8.83;;;10.80;99.90;;;;;;5077967;28;20402;-43
2021/05/28 05:06:53;;;;;;;9.30;8.40;;;10.90;99.90;;;;;;5079227;28;20192;-43
2021/05/28 05:09:18;;;;;;;12.77;8.27;;;11.00;99.90;;;;;;5077786;28;20186;-43
2021/05/28 05:11:44;;;;;;;9.60;7.73;;;11.20;99.90;;;;;;5076655;28;20213;-43
2021/05/28 05:14:10;;;;;;;8.57;7.67;;;11.30;99.90;;;;;;5077596;28;20233;-42
2021/05/28 05:16:35;;;;;;;8.00;7.27;;;11.30;99.90;;;;;;5077068;28;20212;-42
2021/05/28 05:19:01;;;;;;;8.63;7.73;;;11.40;99.80;;;;;;5077994;28;20173;-43
2021/05/28 05:21:26;;;;;;;8.93;8.03;;;11.50;99.30;;;;;;5078100;28;20475;-41
2021/05/28 05:23:52;;;;;;;8.90;8.10;;;11.60;98.80;;;;;;5077687;28;20248;-42
2021/05/28 05:26:17;;;;;;;8.50;7.60;;;11.70;98.60;;;;;;5077712;28;20189;-43
2021/05/28 05:28:43;;;;;;;8.40;7.47;;;11.70;98.60;;;;;;5078567;28;20262;-43
2021/05/28 05:31:08;;;;;;;10.63;9.70;;;11.80;98.10;;;;;;5078151;28;20185;-43
2021/05/28 05:33:34;;;;;;;10.50;8.37;;;11.80;97.80;;;;;;5077413;28;20173;-42
2021/05/28 05:36:00;;;;;;;11.53;8.13;;;11.70;97.70;;;;;;5077902;28;20578;-42
2021/05/28 05:38:25;;;;;;;9.47;8.57;;;11.70;97.70;;;;;;5078040;28;20177;-41
2021/05/28 05:40:51;;;;;;;9.00;8.10;;;11.60;97.50;;;;;;5077829;28;20184;-40
2021/05/28 05:43:17;;;;;;;9.93;8.13;;;11.60;97.90;;;;;;5077440;28;20217;-42
2021/05/28 05:45:43;;;;;;;9.00;8.10;;;11.60;98.30;;;;;;5076949;28;20629;-42
2021/05/28 05:48:09;;;;;;;9.87;6.87;;;11.60;98.40;;;;;;5077234;28;20275;-42
2021/05/28 05:50:34;;;;;;;10.30;8.80;;;11.70;98.30;;;;;;5077875;28;20763;-42
2021/05/28 05:53:00;;;;;;;10.60;8.03;;;11.70;97.80;;;;;;5078473;28;20431;-42
2021/05/28 05:55:26;;;;;;;11.53;7.90;;;11.80;98.00;;;;;;5077914;28;20204;-42
2021/05/28 05:57:52;;;;;;;9.30;7.60;;;11.80;97.60;;;;;;5077123;28;20590;-41
2021/05/28 06:00:18;;;;;;;9.53;7.90;;;11.90;97.80;;;;;;5077706;28;20173;-42
2021/05/28 06:02:44;;;;;;;8.20;6.93;;;12.00;97.60;;;;;;5078463;28;20651;-41
2021/05/28 06:05:10;;;;;;;8.73;7.80;;;12.10;97.40;;;;;;5077930;28;20411;-41
2021/05/28 06:07:35;;;;;;;9.90;7.80;;;12.30;97.20;;;;;;5060516;28;20181;-42
2021/05/28 06:10:01;;;;;;;11.70;8.90;;;12.50;96.80;;;;;;5078028;28;20411;-42
2021/05/28 06:12:27;;;;;;;8.83;7.83;;;12.70;96.50;;;;;;5077917;28;20232;-42
2021/05/28 06:14:52;;;;;;;11.63;8.10;;;12.80;96.20;;;;;;5077874;28;20250;-41
2021/05/28 06:17:18;;;;;;;8.37;6.90;;;12.90;95.70;;;;;;5077278;28;20252;-43
2021/05/28 06:19:44;;;;;;;13.63;7.57;;;13.10;95.50;;;;;;5077492;28;20267;-43
2021/05/28 06:22:09;;;;;;;10.00;6.83;;;13.40;95.30;;;;;;5077801;28;20185;-43
2021/05/28 06:24:35;;;;;;;11.90;7.97;;;13.60;94.70;;;;;;5078117;28;20169;-43
2021/05/28 06:27:00;;;;;;;7.80;6.80;;;13.70;94.30;;;;;;5077745;28;20284;-42
2021/05/28 06:29:26;;;;;;;10.33;7.43;;;13.90;93.80;;;;;;5077989;28;20169;-43
2021/05/28 06:31:52;;;;;;;7.93;7.07;;;14.10;93.80;;;;;;5077433;28;20523;-40
2021/05/28 06:34:17;;;;;;;6.77;6.07;;;14.30;93.40;;;;;;5077773;28;20260;-41
2021/05/28 06:36:44;;;;;;;7.30;6.43;;;14.50;93.30;;;;;;5075878;28;20220;-41
2021/05/28 06:39:11;;;;;;;10.37;6.67;;;14.70;92.20;;;;;;5076122;28;20192;-41
2021/05/28 06:41:37;;;;;;;7.70;6.93;;;15.00;92.40;;;;;;5077483;28;20839;-44
2021/05/28 06:44:04;;;;;;;7.73;6.63;;;15.30;92.00;;;;;;5076412;28;20422;-43
2021/05/28 06:46:30;;;;;;;5.43;4.80;;;15.20;90.50;;;;;;5076345;28;20829;-45
2021/05/28 06:48:57;;;;;;;6.20;4.83;;;15.40;91.20;;;;;;5076467;28;20441;-44
2021/05/28 06:51:22;;;;;;;6.37;4.60;;;15.80;90.80;;;;;;5076759;28;20165;-44
2021/05/28 06:53:48;;;;;;;8.20;6.40;;;16.20;90.00;;;;;;5076776;28;20408;-44
2021/05/28 06:56:13;;;;;;;6.57;5.90;;;16.50;88.70;;;;;;5076377;28;20236;-44
2021/05/28 06:58:46;;;;;;;6.40;5.70;;;16.80;86.00;;;;;;5076089;28;20173;-44
2021/05/28 07:01:11;;;;;;;6.97;6.27;;;16.90;86.10;;;;;;5076559;28;20544;-44
2021/05/28 07:03:37;;;;;;;6.83;6.20;;;16.80;83.80;;;;;;5075650;28;20434;-45
2021/05/28 07:06:03;;;;;;;9.10;5.80;;;15.60;86.00;;;;;;5075599;28;20415;-43
2021/05/28 07:08:28;;;;;;;5.37;4.90;;;15.80;88.20;;;;;;5076958;28;20177;-42
2021/05/28 07:10:54;;;;;;;7.97;5.43;;;16.30;87.40;;;;;;5075336;28;20181;-42
2021/05/28 07:13:19;;;;;;;6.10;5.37;;;16.50;85.40;;;;;;5075345;28;20256;-43
2021/05/28 07:15:45;;;;;;;9.43;4.90;;;16.60;84.30;;;;;;5075409;28;20246;-42
2021/05/28 07:18:11;;;;;;;9.93;6.50;;;17.00;84.90;;;;;;5075128;28;20180;-43
2021/05/28 07:20:37;;;;;;;6.00;5.40;;;17.40;84.20;;;;;;5075292;28;20173;-43
2021/05/28 07:23:03;;;;;;;6.53;5.60;;;17.60;83.40;;;;;;5075222;28;20204;-43
2021/05/28 07:25:29;;;;;;;7.83;6.30;;;17.70;82.80;;;;;;5075514;28;20443;-42
2021/05/28 07:27:54;;;;;;;6.20;5.60;;;17.90;82.60;;;;;;5076153;28;20583;-42
2021/05/28 07:30:20;;;;;;;7.70;5.97;;;18.10;81.50;;;;;;5075592;28;20329;-43
2021/05/28 07:32:46;;;;;;;6.63;5.70;;;18.30;81.60;;;;;;5076233;28;20185;-43
2021/05/28 07:35:12;;;;;;;6.80;5.10;;;18.50;80.10;;;;;;5075367;28;20477;-43
2021/05/28 07:37:38;;;;;;;9.33;5.43;;;18.90;78.70;;;;;;5075184;28;20201;-43
2021/05/28 07:40:06;;;;;;;5.83;5.30;;;18.60;79.60;;;;;;5073703;28;20684;-42
2021/05/28 07:42:32;;;;;;;5.30;4.83;;;18.90;77.10;;;;;;5074525;28;20536;-42
2021/05/28 07:44:58;;;;;;;6.63;5.83;;;18.60;75.10;;;;;;5073975;28;20757;-41
2021/05/28 07:47:24;;;;;;;7.03;5.40;;;17.30;75.50;;;;;;5074160;28;20287;-43
2021/05/28 07:49:49;;;;;;;4.50;4.17;;;17.20;79.30;;;;;;5073574;28;20511;-42
2021/05/28 07:52:15;;;;;;;5.27;4.77;;;17.80;78.40;;;;;;5073643;28;20184;-43
2021/05/28 07:54:41;;;;;;;4.60;4.17;;;18.40;77.90;;;;;;5073845;28;20169;-43
2021/05/28 07:57:07;;;;;;;6.43;3.93;;;19.00;76.70;;;;;;5072972;28;20471;-43
2021/05/28 07:59:33;;;;;;;5.73;4.00;;;19.70;73.70;;;;;;5074128;28;20510;-43
2021/05/28 08:02:00;;;;;;;5.20;3.77;;;20.30;72.00;;;;;;5074816;28;20423;-43
2021/05/28 08:04:25;;;;;;;5.27;4.00;;;20.50;70.30;;;;;;5073920;28;20419;-43
2021/05/28 08:06:51;;;;;;;3.70;3.40;;;20.60;65.20;;;;;;5075628;28;20501;-43
2021/05/28 08:09:17;;;;;;;4.70;3.67;;;19.70;66.30;;;;;;5074814;28;20187;-42
2021/05/28 08:11:43;;;;;;;4.40;3.60;;;19.70;66.70;;;;;;5077458;28;20196;-42
2021/05/28 08:14:08;;;;;;;4.97;3.63;;;20.20;66.70;;;;;;5078606;28;20244;-41
2021/05/28 08:16:34;;;;;;;4.33;3.80;;;20.70;64.60;;;;;;5078078;28;20566;-43
2021/05/28 08:19:00;;;;;;;4.80;3.53;;;21.20;64.90;;;;;;5079751;28;20185;-45
2021/05/28 08:21:26;;;;;;;5.03;3.50;;;21.60;62.80;;;;;;5078977;28;20180;-44
2021/05/28 08:23:51;;;;;;;4.87;3.90;;;21.30;61.40;;;;;;5079273;28;20636;-43
2021/05/28 08:26:17;;;;;;;7.03;4.30;;;21.30;60.60;;;;;;5078573;28;20208;-44
2021/05/28 08:28:42;;;;;;;5.10;3.87;;;21.40;59.60;;;;;;5079714;28;20192;-43
2021/05/28 08:31:08;;;;;;;4.90;4.10;;;21.50;59.60;;;;;;5079639;28;20453;-44
2021/05/28 08:33:34;;;;;;;4.93;3.77;;;21.40;59.30;;;;;;5078858;28;20585;-44
2021/05/28 08:36:00;;;;;;;4.23;3.83;;;21.30;58.80;;;;;;5079661;28;20555;-44
2021/05/28 08:38:26;;;;;;;4.70;4.00;;;21.20;58.50;;;;;;5080269;28;20439;-43
2021/05/28 08:40:52;;;;;;;4.53;4.13;;;21.00;59.20;;;;;;5078703;28;20490;-43
2021/05/28 08:43:17;;;;;;;5.50;4.27;;;20.90;59.30;;;;;;5079595;28;20645;-44
2021/05/28 08:45:45;;;;;;;4.33;3.93;;;20.80;59.70;;;;;;5079989;28;20459;-44
2021/05/28 08:48:13;;;;;;;5.30;4.23;;;20.70;60.30;;;;;;5080071;28;20251;-44
2021/05/28 08:50:41;;;;;;;4.80;4.40;;;20.80;60.70;;;;;;5079125;28;20407;-43
2021/05/28 08:53:08;;;;;;;7.33;5.20;;;20.90;60.00;;;;;;5078416;28;20442;-44
2021/05/28 08:55:35;;;;;;;4.43;4.03;;;20.90;59.00;;;;;;5059594;28;20551;-43
2021/05/28 08:58:06;;;;;;;4.10;3.70;;;21.20;59.00;;;;;;5078729;28;20813;-45
2021/05/28 09:00:32;;;;;;;3.93;3.53;;;21.70;59.00;;;;;;5079513;28;20407;-45
2021/05/28 09:03:17;;;;;;;5.33;4.37;;;22.00;57.50;;;;;;5078988;28;20496;-44
2021/05/28 09:05:42;;;;;;;4.90;3.73;;;21.80;57.10;;;;;;5078828;28;20492;-44
2021/05/28 09:08:08;;;;;;;4.27;3.90;;;21.60;57.30;;;;;;5078945;28;20439;-45
2021/05/28 09:10:41;;;;;;;3.80;3.50;;;21.30;57.20;;;;;;5077770;28;20185;-45
2021/05/28 09:13:17;;;;;;;5.70;4.60;;;21.20;57.70;;;;;;5078024;28;20248;-45
2021/05/28 09:15:45;;;;;;;5.33;4.83;;;20.90;57.30;;;;;;5078746;28;20534;-44
2021/05/28 09:18:11;;;;;;;4.50;3.93;;;20.80;57.90;;;;;;5079566;28;20856;-44
2021/05/28 09:20:38;;;;;;;5.03;4.60;;;20.80;58.10;;;;;;5078093;28;20414;-44
2021/05/28 09:23:10;;;;;;;5.50;4.53;;;20.70;58.10;;;;;;5077467;28;20435;-45
2021/05/28 09:26:05;;;;;;;5.13;4.73;;;20.70;58.00;;;;;;5077361;28;20431;-44
2021/05/28 09:28:48;;;;;;;4.47;4.07;;;20.80;58.10;;;;;;5078372;28;20852;-44
2021/05/28 09:31:18;;;;;;;4.50;4.10;;;20.90;58.10;;;;;;5078344;28;20434;-44
2021/05/28 09:33:49;;;;;;;4.33;3.93;;;21.40;57.90;;;;;;5077485;28;20442;-45
2021/05/28 09:36:19;;;;;;;3.83;3.53;;;22.20;56.70;;;;;;5076992;28;20477;-43
2021/05/28 09:39:00;;;;;;;4.47;4.00;;;23.50;54.20;;;;;;5077662;28;20458;-43
2021/05/28 09:41:53;;;;;;;4.03;3.73;;;24.30;52.40;;;;;;5076777;28;20435;-44
2021/05/28 09:44:27;;;;;;;4.70;3.03;;;24.30;51.10;;;;;;5077444;28;20506;-44
2021/05/28 09:47:17;;;;;;;5.37;3.93;;;24.30;50.20;;;;;;5076958;28;20827;-44
2021/05/28 09:49:44;;;;;;;4.97;4.33;;;24.20;50.90;;;;;;5078016;28;20805;-43
2021/05/28 09:52:12;;;;;;;5.33;4.93;;;23.80;52.30;;;;;;5077746;28;20761;-44
2021/05/28 09:54:40;;;;;;;4.57;3.90;;;23.30;52.00;;;;;;5078137;28;20399;-43
2021/05/28 09:57:06;;;;;;;5.67;5.07;;;22.90;52.70;;;;;;5060066;28;20636;-42
2021/05/28 09:59:45;;;;;;;6.60;5.30;;;22.90;53.40;;;;;;5077173;28;20554;-44
2021/05/28 10:02:33;;;;;;;6.43;5.60;;;22.80;53.20;;;;;;5077859;28;20493;-43
2021/05/28 10:04:59;;;;;;;7.33;4.70;;;22.60;53.80;;;;;;5078307;28;20414;-44
2021/05/28 10:07:26;;;;;;;7.37;5.30;;;22.90;53.50;;;;;;5077651;28;20436;-44
2021/05/28 10:09:53;;;;;;;8.90;4.60;;;23.20;52.60;;;;;;5077807;28;20553;-44
2021/05/28 10:12:20;;;;;;;5.13;4.60;;;23.50;52.60;;;;;;5077349;28;20457;-45
2021/05/28 10:14:48;;;;;;;4.60;4.10;;;24.40;51.90;;;;;;5077919;28;20762;-43
2021/05/28 10:17:14;;;;;;;6.73;4.37;;;25.40;50.00;;;;;;5078079;28;20486;-42
2021/05/28 10:19:40;;;;;;;4.77;4.27;;;25.90;49.90;;;;;;5076676;28;20411;-42
2021/05/28 10:22:06;;;;;;;4.97;4.57;;;25.70;48.00;;;;;;5076377;28;20596;-42
2021/05/28 10:24:32;;;;;;;4.43;4.03;;;25.60;47.50;;;;;;5076483;28;20482;-42
2021/05/28 10:26:57;;;;;;;4.33;3.93;;;24.80;47.80;;;;;;5076136;28;20761;-44
2021/05/28 10:29:25;;;;;;;5.93;5.07;;;24.70;48.50;;;;;;5075062;28;20189;-44
2021/05/28 10:31:54;;;;;;;4.07;3.70;;;24.40;47.80;;;;;;5075879;28;20475;-44
2021/05/28 10:34:22;;;;;;;6.20;5.00;;;24.30;48.10;;;;;;5076051;28;20675;-43
2021/05/28 10:36:48;;;;;;;4.90;4.50;;;24.40;47.60;;;;;;5075873;28;20565;-44
2021/05/28 10:39:17;;;;;;;4.90;4.40;;;24.50;47.10;;;;;;5077044;28;20440;-42
2021/05/28 10:41:45;;;;;;;4.67;4.27;;;25.40;47.00;;;;;;5078032;28;20572;-44
2021/05/28 10:44:20;;;;;;;6.00;5.40;;;25.90;46.70;;;;;;5077878;28;20415;-44
2021/05/28 10:46:52;;;;;;;5.90;5.40;;;26.00;47.00;;;;;;5077118;28;20463;-44
2021/05/28 10:49:31;;;;;;;5.80;5.30;;;25.60;46.80;;;;;;5077290;28;20408;-44
2021/05/28 10:51:56;;;;;;;5.93;5.43;;;25.40;46.70;;;;;;5076451;28;20465;-44
2021/05/28 10:54:22;;;;;;;5.77;5.27;;;24.30;48.10;;;;;;5077498;28;20423;-44
2021/05/28 10:56:47;;;;;;;6.10;5.23;;;24.10;48.80;;;;;;5076558;28;20201;-44
2021/05/28 10:59:17;;;;;;;6.63;4.77;;;23.40;48.90;;;;;;5077013;28;20440;-44
2021/05/28 11:01:57;;;;;;;4.97;4.27;;;23.50;50.50;;;;;;5077230;28;20280;-44
2021/05/28 11:04:26;;;;;;;4.37;3.97;;;24.10;49.50;;;;;;5076211;28;20659;-44
2021/05/28 11:06:55;;;;;;;4.37;4.00;;;24.10;48.50;;;;;;5076610;28;20485;-44
2021/05/28 11:09:36;;;;;;;4.27;3.50;;;23.80;47.70;;;;;;5076483;28;20488;-44
2021/05/28 11:12:03;;;;;;;5.50;4.60;;;24.60;47.70;;;;;;5076045;28;20772;-45
2021/05/28 11:14:29;;;;;;;4.20;3.80;;;24.90;45.90;;;;;;5076342;28;20475;-44
2021/05/28 11:16:57;;;;;;;4.43;3.70;;;25.10;45.40;;;;;;5058481;28;20489;-44
2021/05/28 11:19:27;;;;;;;3.80;3.20;;;25.00;45.00;;;;;;5076228;28;20234;-45
2021/05/28 11:21:58;;;;;;;3.90;3.20;;;24.10;43.80;;;;;;5075581;28;20768;-44
2021/05/28 11:24:46;;;;;;;3.83;3.03;;;23.80;45.20;;;;;;5075956;28;20423;-44
2021/05/28 11:27:16;;;;;;;3.70;3.40;;;23.90;44.70;;;;;;5076692;28;20415;-44
2021/05/28 11:29:42;;;;;;;3.50;3.20;;;23.60;44.70;;;;;;5076318;28;20529;-44
2021/05/28 11:32:35;;;;;;;3.77;3.30;;;23.70;46.00;;;;;;5075074;28;20443;-44
2021/05/28 11:35:17;;;;;;;2.83;2.50;;;24.10;45.70;;;;;;5075384;28;20184;-45
2021/05/28 11:37:44;;;;;;;3.40;3.10;;;26.00;45.50;;;;;;5075898;28;20446;-44
2021/05/28 11:40:31;;;;;;;3.20;2.90;;;26.90;43.80;;;;;;5075381;28;20404;-44
2021/05/28 11:43:18;;;;;;;2.97;2.50;;;28.10;41.30;;;;;;5078567;28;20443;-45
2021/05/28 11:45:53;;;;;;;4.30;3.53;;;28.30;41.00;;;;;;5074719;28;20482;-45
2021/05/28 11:48:20;;;;;;;4.13;3.37;;;28.30;39.50;;;;;;5076294;28;20418;-44
2021/05/28 11:50:57;;;;;;;3.63;3.33;;;26.30;39.30;;;;;;5075196;28;20813;-44
2021/05/28 11:53:23;;;;;;;2.73;2.53;;;27.40;39.90;;;;;;5074811;28;20690;-45
2021/05/28 11:55:51;;;;;;;3.27;2.97;;;28.50;39.20;;;;;;5075263;28;20884;-45
2021/05/28 11:58:21;;;;;;;3.43;3.13;;;29.60;38.20;;;;;;5073590;28;20419;-45
2021/05/28 12:00:49;;;;;;;3.10;2.80;;;30.30;37.10;;;;;;5074341;28;20407;-39
2021/05/28 12:03:16;;;;;;;3.40;3.10;;;30.20;36.00;;;;;;5073975;28;20405;-38
2021/05/28 12:05:44;;;;;;;3.70;3.03;;;30.70;35.80;;;;;;5073821;28;20408;-38
2021/05/28 12:08:09;;;;;;;3.30;3.00;;;31.60;35.70;;;;;;5074278;28;20417;-36
2021/05/28 12:10:35;;;;;;;3.60;3.30;;;32.00;34.50;;;;;;5073955;28;20394;-37
2021/05/28 12:13:05;;;;;;;5.97;3.70;;;31.90;34.50;;;;;;5074997;28;20499;-38
2021/05/28 12:15:32;;;;;;;3.80;3.50;;;31.20;33.80;;;;;;5075406;28;20437;-37
2021/05/28 12:18:01;;;;;;;3.00;2.80;;;30.90;33.60;;;;;;5075033;28;20427;-37
2021/05/28 12:20:32;;;;;;;3.67;3.30;;;31.10;34.90;;;;;;5074304;28;20757;-38
2021/05/28 12:22:58;;;;;;;3.30;3.00;;;31.10;33.80;;;;;;5074653;28;20603;-39
2021/05/28 12:25:24;;;;;;;3.03;2.83;;;31.90;34.40;;;;;;5074628;28;20390;-37
2021/05/28 12:27:50;;;;;;;4.00;3.40;;;32.90;33.90;;;;;;5074590;28;20402;-39
2021/05/28 12:30:16;;;;;;;4.00;3.00;;;33.00;30.00;;;;;;5074218;28;20654;-38
2021/05/28 12:32:42;;;;;;;4.10;3.70;;;32.10;32.60;;;;;;5072175;28;20276;-38
2021/05/28 12:35:08;;;;;;;4.10;3.70;;;32.40;31.90;;;;;;5073648;28;20436;-38
2021/05/28 12:37:34;;;;;;;3.53;3.23;;;31.40;32.40;;;;;;5074889;28;20668;-37
2021/05/28 12:40:07;;;;;;;5.27;3.40;;;30.60;33.90;;;;;;5074900;28;20386;-41
2021/05/28 12:42:33;;;;;;;4.30;3.90;;;29.80;35.00;;;;;;5074252;28;20229;-36
2021/05/28 12:45:09;;;;;;;4.23;3.63;;;28.10;35.30;;;;;;5074353;28;20413;-36
2021/05/28 12:47:45;;;;;;;3.77;3.40;;;27.20;35.90;;;;;;5073510;28;20215;-38
2021/05/28 12:50:32;;;;;;;3.30;3.10;;;26.30;37.20;;;;;;5071582;28;20430;-39
2021/05/28 12:52:59;;;;;;;3.27;2.97;;;25.90;38.60;;;;;;5073630;28;20438;-37